createdAt,value
2023-07-10T00:01:46.500Z,77.37
2023-07-10T00:04:17.078Z,76.78
2023-07-10T00:06:45.317Z,78.64
2023-07-10T00:09:12.830Z,80.53
2023-07-10T00:11:43.033Z,78.83
2023-07-10T00:14:19.058Z,76.81
2023-07-10T00:16:46.542Z,77.35
2023-07-10T00:19:15.502Z,77.83
2023-07-10T00:21:43.235Z,77.85
2023-07-10T00:24:11.155Z,78.83
2023-07-10T00:26:39.701Z,76.59
2023-07-10T00:29:17.074Z,77.50
2023-07-10T00:31:44.677Z,77.93
2023-07-10T00:34:15.534Z,77.55
2023-07-10T00:36:43.785Z,79.34
2023-07-10T00:39:21.494Z,79.63
2023-07-10T00:41:51.410Z,79.10
2023-07-10T00:44:25.079Z,79.76
2023-07-10T00:46:57.357Z,80.08
2023-07-10T00:49:31.444Z,77.78
2023-07-10T00:52:02.516Z,77.93
2023-07-10T00:54:33.942Z,77.88
2023-07-10T00:57:04.073Z,79.60
2023-07-10T00:59:38.207Z,78.01
2023-07-10T01:02:19.849Z,79.55
2023-07-10T01:04:53.893Z,81.14
2023-07-10T01:07:23.654Z,80.80
2023-07-10T01:09:54.755Z,81.94
2023-07-10T01:12:22.969Z,82.10
2023-07-10T01:14:51.836Z,81.44
2023-07-10T01:17:20.628Z,81.90
2023-07-10T01:19:50.195Z,81.45
2023-07-10T01:22:19.066Z,80.98
2023-07-10T01:24:53.215Z,82.09
2023-07-10T01:27:23.303Z,81.30
2023-07-10T01:29:57.404Z,79.65
2023-07-10T01:32:28.972Z,80.17
2023-07-10T01:35:01.394Z,79.33
2023-07-10T01:37:30.335Z,80.62
2023-07-10T01:39:57.840Z,80.57
2023-07-10T01:42:25.601Z,82.14
2023-07-10T01:44:54.088Z,80.78
2023-07-10T01:47:22.457Z,79.63
2023-07-10T01:49:53.852Z,79.71
2023-07-10T01:52:23.064Z,81.81
2023-07-10T01:54:54.049Z,80.61
2023-07-10T01:57:24.960Z,80.16
2023-07-10T01:59:53.005Z,79.93
2023-07-10T02:02:20.808Z,80.37
2023-07-10T02:04:48.347Z,78.97
2023-07-10T02:07:15.823Z,79.10
2023-07-10T02:09:43.305Z,79.81
2023-07-10T02:12:12.439Z,80.87
2023-07-10T02:14:39.913Z,80.65
2023-07-10T02:17:07.828Z,79.50
2023-07-10T02:19:35.381Z,79.54
2023-07-10T02:22:02.895Z,79.81
2023-07-10T02:24:30.413Z,79.10
2023-07-10T02:26:58.096Z,79.86
2023-07-10T02:29:27.015Z,79.36
2023-07-10T02:31:54.617Z,79.16
2023-07-10T02:34:22.173Z,78.91
2023-07-10T02:36:49.658Z,78.49
2023-07-10T02:39:17.292Z,78.30
2023-07-10T02:41:44.795Z,78.96
2023-07-10T02:44:12.385Z,79.57
2023-07-10T02:46:41.310Z,79.49
2023-07-10T02:49:08.848Z,78.93
2023-07-10T02:51:36.386Z,80.97
2023-07-10T02:54:10.851Z,81.27
2023-07-10T02:56:38.370Z,81.20
2023-07-10T02:59:05.970Z,79.56
2023-07-10T03:01:33.718Z,79.80
2023-07-10T03:04:02.538Z,79.56
2023-07-10T03:06:30.011Z,80.32
2023-07-10T03:08:59.483Z,80.30
2023-07-10T03:11:27.103Z,81.21
2023-07-10T03:13:54.905Z,81.49
2023-07-10T03:16:22.464Z,81.06
2023-07-10T03:18:49.935Z,81.52
2023-07-10T03:21:18.722Z,81.17
2023-07-10T03:23:49.355Z,80.76
2023-07-10T03:26:17.027Z,82.24
2023-07-10T03:28:44.894Z,81.96
2023-07-10T03:31:12.735Z,81.80
2023-07-10T03:33:40.229Z,81.43
2023-07-10T03:36:09.880Z,80.98
2023-07-10T03:38:38.836Z,81.48
2023-07-10T03:41:06.929Z,81.82
2023-07-10T03:43:34.463Z,81.89
2023-07-10T03:46:02.268Z,84.41
2023-07-10T03:48:30.123Z,83.34
2023-07-10T03:50:57.751Z,82.44
2023-07-10T03:53:28.905Z,81.82
2023-07-10T03:55:57.945Z,82.00
2023-07-10T03:58:29.088Z,81.91
2023-07-10T04:01:00.338Z,82.09
2023-07-10T04:03:30.515Z,81.69
2023-07-10T04:05:59.319Z,82.48
2023-07-10T04:08:29.416Z,82.23
2023-07-10T04:11:00.861Z,82.03
2023-07-10T04:13:28.663Z,81.50
2023-07-10T04:16:01.273Z,80.81
2023-07-10T04:18:31.002Z,81.34
2023-07-10T04:20:59.577Z,79.86
2023-07-10T04:23:27.792Z,79.64
2023-07-10T04:25:55.941Z,80.33
2023-07-10T04:28:25.211Z,80.31
2023-07-10T04:30:53.906Z,79.84
2023-07-10T04:33:22.317Z,80.31
2023-07-10T04:35:55.831Z,81.05
2023-07-10T04:38:25.096Z,81.85
2023-07-10T04:40:53.637Z,81.21
2023-07-10T04:43:21.655Z,81.79
2023-07-10T04:45:51.000Z,81.04
2023-07-10T04:48:18.548Z,80.94
2023-07-10T04:50:48.580Z,80.19
2023-07-10T04:53:16.261Z,80.56
2023-07-10T04:55:44.574Z,78.90
2023-07-10T04:58:12.564Z,79.96
2023-07-10T05:00:40.089Z,79.36
2023-07-10T05:03:09.778Z,77.76
2023-07-10T05:05:37.775Z,79.41
2023-07-10T05:08:05.866Z,78.96
2023-07-10T05:10:33.494Z,78.24
2023-07-10T05:13:00.972Z,79.08
2023-07-10T05:15:28.452Z,78.99
2023-07-10T05:17:56.044Z,78.48
2023-07-10T05:20:25.038Z,78.81
2023-07-10T05:22:52.776Z,78.19
2023-07-10T05:25:21.045Z,77.95
2023-07-10T05:27:48.557Z,78.31
2023-07-10T05:30:16.171Z,79.12
2023-07-10T05:32:43.731Z,78.88
2023-07-10T05:35:11.320Z,79.95
2023-07-10T05:37:40.190Z,79.19
2023-07-10T05:40:09.157Z,80.23
2023-07-10T05:42:36.621Z,78.26
2023-07-10T05:45:04.123Z,79.21
2023-07-10T05:47:31.631Z,77.80
2023-07-10T05:49:59.220Z,79.08
2023-07-10T05:52:26.682Z,77.57
2023-07-10T05:54:55.516Z,79.04
2023-07-10T05:57:23.950Z,78.22
2023-07-10T05:59:51.485Z,79.37
2023-07-10T06:02:19.048Z,78.86
2023-07-10T06:04:46.517Z,77.65
2023-07-10T06:07:14.003Z,77.29
2023-07-10T06:09:41.450Z,79.36
2023-07-10T06:12:10.892Z,79.42
2023-07-10T06:14:38.415Z,80.30
2023-07-10T06:17:06.536Z,81.83
2023-07-10T06:19:34.024Z,81.85
2023-07-10T06:22:09.267Z,82.25
2023-07-10T06:24:36.734Z,80.26
2023-07-10T06:27:04.874Z,79.63
2023-07-10T06:29:35.624Z,75.03
2023-07-10T06:32:03.351Z,76.14
2023-07-10T06:34:31.241Z,75.07
2023-07-10T06:36:58.728Z,76.31
2023-07-10T06:39:28.763Z,75.67
2023-07-10T06:41:56.303Z,76.13
2023-07-10T06:44:23.862Z,77.01
2023-07-10T06:46:52.722Z,76.92
2023-07-10T06:49:20.179Z,77.14
2023-07-10T06:51:47.698Z,77.10
2023-07-10T06:54:15.186Z,77.27
2023-07-10T06:56:42.659Z,76.81
2023-07-10T06:59:10.135Z,74.67
2023-07-10T07:01:37.646Z,74.82
2023-07-10T07:04:06.572Z,72.84
2023-07-10T07:06:34.123Z,73.98
2023-07-10T07:09:01.608Z,72.51
2023-07-10T07:11:29.073Z,73.02
2023-07-10T07:13:56.648Z,73.87
2023-07-10T07:16:24.171Z,74.00
2023-07-10T07:19:02.626Z,73.94
2023-07-10T07:21:39.886Z,73.22
2023-07-10T07:24:07.617Z,73.16
2023-07-10T07:26:35.163Z,73.45
2023-07-10T07:29:02.761Z,73.74
2023-07-10T07:31:30.336Z,73.74
2023-07-10T07:33:57.974Z,73.95
2023-07-10T07:36:25.478Z,71.93
2023-07-10T07:38:54.338Z,71.80
2023-07-10T07:41:21.837Z,70.94
2023-07-10T07:43:50.411Z,71.19
2023-07-10T07:46:17.907Z,71.32
2023-07-10T07:48:45.415Z,73.34
2023-07-10T07:51:13.011Z,73.01
2023-07-10T07:53:42.465Z,72.36
2023-07-10T07:56:11.769Z,73.45
2023-07-10T07:58:39.295Z,71.37
2023-07-10T08:01:06.960Z,70.93
2023-07-10T08:03:35.092Z,71.00
2023-07-10T08:06:03.101Z,69.25
2023-07-10T08:08:30.791Z,71.01
2023-07-10T08:10:58.336Z,71.04
2023-07-10T08:13:27.303Z,69.62
2023-07-10T08:15:54.989Z,67.66
2023-07-10T08:18:22.599Z,69.36
2023-07-10T08:20:50.084Z,67.30
2023-07-10T08:23:17.949Z,66.27
2023-07-10T08:25:45.474Z,66.55
2023-07-10T08:28:12.992Z,65.81
2023-07-10T08:30:41.977Z,64.96
2023-07-10T08:33:11.637Z,64.57
2023-07-10T08:35:39.259Z,65.84
2023-07-10T08:38:07.264Z,65.11
2023-07-10T08:40:36.137Z,65.95
2023-07-10T08:43:23.784Z,67.82
2023-07-10T08:45:52.914Z,67.93
2023-07-10T08:48:28.897Z,67.32
2023-07-10T08:51:00.816Z,66.08
2023-07-10T08:53:32.785Z,66.11
2023-07-10T08:56:05.627Z,65.23
2023-07-10T08:58:38.406Z,62.58
2023-07-10T09:01:16.282Z,61.88
2023-07-10T09:03:47.983Z,62.65
2023-07-10T09:06:20.366Z,63.40
2023-07-10T09:08:52.214Z,63.78
2023-07-10T09:11:20.909Z,62.40
2023-07-10T09:13:55.208Z,62.90
2023-07-10T09:16:24.940Z,61.99
2023-07-10T09:18:56.048Z,61.43
2023-07-10T09:21:26.985Z,61.76
2023-07-10T09:23:54.557Z,61.22
2023-07-10T09:26:27.830Z,60.77
2023-07-10T09:29:03.367Z,60.97
2023-07-10T09:31:44.341Z,59.32
2023-07-10T09:34:13.164Z,58.86
2023-07-10T09:36:41.004Z,59.65
2023-07-10T09:39:08.644Z,59.06
2023-07-10T09:41:39.655Z,58.57
2023-07-10T09:44:24.260Z,57.12
2023-07-10T09:47:07.482Z,56.55
2023-07-10T09:49:39.049Z,55.53
2023-07-10T09:52:17.691Z,56.19
2023-07-10T09:54:45.179Z,57.42
2023-07-10T09:57:15.457Z,57.20
2023-07-10T09:59:49.336Z,55.75
2023-07-10T10:02:21.467Z,56.31
2023-07-10T10:04:54.942Z,55.46
2023-07-10T10:07:24.000Z,55.23
2023-07-10T10:10:22.798Z,54.14
2023-07-10T10:12:54.118Z,55.07
2023-07-10T10:15:30.068Z,52.78
2023-07-10T10:18:03.279Z,53.44
2023-07-10T10:20:34.344Z,54.07
2023-07-10T10:23:02.156Z,53.20
2023-07-10T10:25:36.213Z,53.16
2023-07-10T10:28:19.585Z,52.11
2023-07-10T10:30:51.031Z,51.74
2023-07-10T10:33:28.748Z,50.53
2023-07-10T10:35:58.430Z,51.38
2023-07-10T10:38:37.365Z,50.57
2023-07-10T10:41:18.776Z,50.68
2023-07-10T10:43:55.508Z,49.77
2023-07-10T10:46:37.023Z,48.58
2023-07-10T10:49:34.320Z,49.33
2023-07-10T10:52:11.295Z,48.30
2023-07-10T10:54:49.498Z,47.56
2023-07-10T10:57:30.246Z,46.84
2023-07-10T11:00:12.644Z,47.67
2023-07-10T11:02:56.380Z,46.51
2023-07-10T11:05:36.332Z,46.80
2023-07-10T11:08:07.544Z,48.50
2023-07-10T11:10:38.098Z,45.06
2023-07-10T11:13:07.054Z,44.40
2023-07-10T11:15:35.543Z,45.40
2023-07-10T11:18:03.684Z,43.87
2023-07-10T11:20:32.630Z,43.26
2023-07-10T11:23:01.636Z,43.66
2023-07-10T11:25:34.672Z,43.39
2023-07-10T11:28:19.604Z,45.34
2023-07-10T11:30:47.375Z,44.46
2023-07-10T11:33:19.790Z,45.01
2023-07-10T11:36:14.848Z,42.91
2023-07-10T11:38:57.581Z,42.64
2023-07-10T11:41:29.739Z,42.64
2023-07-10T11:44:20.775Z,43.59
2023-07-10T11:47:02.603Z,43.97
2023-07-10T11:49:45.593Z,42.59
2023-07-10T11:52:33.895Z,42.47
2023-07-10T11:55:07.326Z,42.31
2023-07-10T11:57:36.721Z,41.65
2023-07-10T12:00:20.821Z,40.82
2023-07-10T12:02:50.549Z,40.57
2023-07-10T12:05:21.984Z,41.75
2023-07-10T12:08:00.046Z,41.54
2023-07-10T12:10:29.922Z,40.28
2023-07-10T12:12:58.732Z,39.70
2023-07-10T12:15:28.081Z,39.35
2023-07-10T12:17:56.768Z,39.85
2023-07-10T12:20:29.587Z,38.24
2023-07-10T12:23:05.585Z,38.06
2023-07-10T12:25:33.066Z,38.59
2023-07-10T12:28:25.074Z,40.30
2023-07-10T12:30:52.369Z,40.81
2023-07-10T12:33:31.994Z,38.88
2023-07-10T12:36:04.523Z,37.70
2023-07-10T12:38:34.832Z,37.25
2023-07-10T12:41:04.227Z,36.81
2023-07-10T12:43:31.777Z,38.33
2023-07-10T12:46:00.292Z,37.62
2023-07-10T12:48:31.725Z,38.43
2023-07-10T12:51:02.414Z,35.99
2023-07-10T12:53:36.430Z,36.96
2023-07-10T12:56:10.102Z,35.13
2023-07-10T12:58:38.682Z,36.07
2023-07-10T13:01:20.897Z,35.61
2023-07-10T13:04:01.277Z,34.91
2023-07-10T13:06:28.825Z,34.87
2023-07-10T13:09:01.837Z,35.29
2023-07-10T13:11:41.379Z,33.65
2023-07-10T13:14:17.120Z,34.23
2023-07-10T13:16:46.495Z,35.61
2023-07-10T13:19:13.988Z,35.22
2023-07-10T13:21:41.469Z,35.17
2023-07-10T13:24:10.357Z,34.51
2023-07-10T13:26:37.806Z,34.84
2023-07-10T13:29:13.176Z,35.42
2023-07-10T13:31:41.044Z,34.40
2023-07-10T13:34:12.564Z,35.84
2023-07-10T13:36:41.574Z,36.78
2023-07-10T13:39:17.280Z,36.87
2023-07-10T13:41:46.326Z,38.09
2023-07-10T13:44:14.666Z,35.14
2023-07-10T13:46:42.621Z,35.68
2023-07-10T13:49:13.847Z,36.43
2023-07-10T13:51:42.435Z,34.65
2023-07-10T13:54:10.421Z,35.97
2023-07-10T13:56:42.247Z,35.03
2023-07-10T13:59:15.805Z,36.14
2023-07-10T14:01:43.385Z,34.90
2023-07-10T14:04:11.064Z,36.02
2023-07-10T14:06:40.686Z,34.77
2023-07-10T14:09:13.538Z,36.74
2023-07-10T14:11:43.568Z,36.75
2023-07-10T14:14:15.241Z,34.13
2023-07-10T14:16:43.280Z,36.66
2023-07-10T14:19:16.710Z,35.49
2023-07-10T14:21:44.663Z,35.65
2023-07-10T14:24:12.157Z,34.23
2023-07-10T14:26:40.046Z,35.63
2023-07-10T14:29:14.933Z,33.95
2023-07-10T14:31:42.481Z,35.90
2023-07-10T14:34:09.981Z,34.38
2023-07-10T14:36:37.636Z,34.44
2023-07-10T14:39:05.209Z,35.15
2023-07-10T14:41:32.747Z,35.26
2023-07-10T14:44:00.416Z,35.83
2023-07-10T14:46:34.543Z,35.91
2023-07-10T14:49:02.446Z,37.12
2023-07-10T14:51:29.890Z,38.23
2023-07-10T14:53:57.398Z,37.02
2023-07-10T14:56:24.971Z,36.59
2023-07-10T14:58:52.420Z,37.08
2023-07-10T15:01:20.004Z,37.80
2023-07-10T15:03:49.084Z,36.92
2023-07-10T15:06:26.676Z,36.79
2023-07-10T15:08:54.455Z,36.88
2023-07-10T15:11:23.716Z,36.53
2023-07-10T15:13:52.096Z,35.45
2023-07-10T15:16:21.819Z,37.23
2023-07-10T15:18:51.298Z,36.06
2023-07-10T15:21:21.694Z,35.69
2023-07-10T15:23:49.463Z,36.01
2023-07-10T15:26:17.780Z,36.13
2023-07-10T15:28:45.284Z,36.13
2023-07-10T15:31:14.576Z,36.17
2023-07-10T15:33:45.236Z,35.01
2023-07-10T15:36:19.206Z,35.35
2023-07-10T15:38:47.211Z,34.43
2023-07-10T15:41:22.794Z,33.83
2023-07-10T15:43:50.429Z,35.26
2023-07-10T15:46:18.357Z,34.65
2023-07-10T15:48:45.924Z,34.25
2023-07-10T15:51:23.575Z,35.50
2023-07-10T15:53:51.190Z,35.71
2023-07-10T15:56:18.737Z,35.59
2023-07-10T15:58:46.974Z,35.34
2023-07-10T16:01:19.221Z,36.55
2023-07-10T16:03:51.311Z,37.53
2023-07-10T16:06:20.196Z,35.30
2023-07-10T16:08:48.095Z,35.65
2023-07-10T16:11:18.414Z,35.69
2023-07-10T16:13:48.654Z,35.15
2023-07-10T16:16:16.692Z,35.38
2023-07-10T16:18:44.248Z,35.40
2023-07-10T16:21:16.140Z,36.55
2023-07-10T16:23:45.979Z,35.83
2023-07-10T16:26:15.203Z,35.37
2023-07-10T16:28:43.256Z,37.89
2023-07-10T16:31:14.153Z,36.20
2023-07-10T16:33:41.688Z,37.20
2023-07-10T16:36:13.464Z,37.43
2023-07-10T16:38:41.007Z,37.51
2023-07-10T16:41:15.687Z,38.09
2023-07-10T16:43:43.742Z,37.26
2023-07-10T16:46:12.843Z,36.54
2023-07-10T16:48:41.352Z,37.14
2023-07-10T16:51:17.724Z,37.81
2023-07-10T16:53:45.644Z,37.12
2023-07-10T16:56:17.004Z,38.61
2023-07-10T16:58:45.432Z,38.41
2023-07-10T17:01:19.543Z,37.60
2023-07-10T17:03:49.438Z,37.73
2023-07-10T17:06:18.683Z,38.95
2023-07-10T17:08:46.223Z,38.71
2023-07-10T17:11:22.165Z,38.53
2023-07-10T17:13:49.757Z,39.09
2023-07-10T17:16:17.386Z,38.57
2023-07-10T17:18:44.890Z,39.26
2023-07-10T17:21:14.280Z,37.12
2023-07-10T17:23:43.204Z,37.31
2023-07-10T17:26:17.929Z,37.29
2023-07-10T17:28:46.460Z,37.78
2023-07-10T17:31:24.270Z,38.92
2023-07-10T17:33:53.565Z,37.92
2023-07-10T17:36:21.860Z,37.50
2023-07-10T17:38:49.968Z,37.22
2023-07-10T17:41:21.967Z,39.23
2023-07-10T17:43:55.121Z,36.21
2023-07-10T17:46:22.854Z,36.24
2023-07-10T17:48:50.570Z,37.38
2023-07-10T17:51:26.197Z,38.52
2023-07-10T17:53:54.824Z,37.89
2023-07-10T17:56:24.893Z,38.04
2023-07-10T17:58:54.684Z,38.03
2023-07-10T18:01:25.548Z,38.28
2023-07-10T18:03:56.844Z,39.91
2023-07-10T18:06:24.622Z,40.56
2023-07-10T18:08:52.153Z,40.22
2023-07-10T18:11:23.582Z,40.19
2023-07-10T18:13:53.864Z,40.70
2023-07-10T18:16:21.426Z,40.66
2023-07-10T18:18:49.032Z,40.62
2023-07-10T18:21:21.593Z,42.24
2023-07-10T18:23:50.078Z,40.98
2023-07-10T18:26:18.992Z,40.71
2023-07-10T18:28:47.064Z,41.43
2023-07-10T18:31:19.988Z,43.38
2023-07-10T18:33:48.216Z,42.55
2023-07-10T18:36:17.275Z,43.30
2023-07-10T18:38:45.122Z,42.40
2023-07-10T18:41:17.878Z,43.90
2023-07-10T18:43:46.625Z,44.45
2023-07-10T18:46:15.354Z,44.57
2023-07-10T18:48:44.654Z,45.24
2023-07-10T18:51:17.101Z,46.63
2023-07-10T18:53:44.846Z,46.54
2023-07-10T18:56:12.725Z,48.48
2023-07-10T18:58:42.381Z,48.07
2023-07-10T19:01:10.437Z,48.35
2023-07-10T19:03:38.542Z,48.27
2023-07-10T19:06:18.397Z,49.26
2023-07-10T19:08:46.762Z,49.15
2023-07-10T19:11:15.995Z,49.21
2023-07-10T19:13:44.154Z,49.06
2023-07-10T19:16:22.238Z,50.40
2023-07-10T19:18:54.205Z,49.73
2023-07-10T19:21:23.112Z,50.91
2023-07-10T19:23:50.702Z,52.92
2023-07-10T19:26:19.354Z,53.33
2023-07-10T19:28:47.406Z,53.60
2023-07-10T19:31:16.797Z,53.75
2023-07-10T19:33:47.663Z,53.28
2023-07-10T19:36:18.987Z,55.08
2023-07-10T19:38:47.973Z,53.20
2023-07-10T19:41:15.683Z,54.31
2023-07-10T19:43:43.721Z,54.56
2023-07-10T19:46:16.855Z,53.17
2023-07-10T19:48:44.918Z,53.38
2023-07-10T19:51:12.585Z,52.34
2023-07-10T19:53:40.111Z,52.70
2023-07-10T19:56:21.324Z,51.90
2023-07-10T19:58:51.393Z,51.06
2023-07-10T20:01:21.171Z,51.56
2023-07-10T20:03:48.833Z,51.72
2023-07-10T20:06:25.536Z,51.82
2023-07-10T20:08:53.767Z,51.88
2023-07-10T20:11:22.962Z,51.28
2023-07-10T20:13:50.883Z,50.84
2023-07-10T20:16:23.536Z,50.75
2023-07-10T20:18:51.060Z,51.35
2023-07-10T20:21:19.517Z,51.01
2023-07-10T20:23:47.422Z,52.08
2023-07-10T20:26:16.870Z,52.92
2023-07-10T20:28:46.532Z,52.82
2023-07-10T20:31:16.303Z,53.07
2023-07-10T20:33:44.395Z,51.50
2023-07-10T20:36:25.491Z,52.32
2023-07-10T20:38:54.018Z,53.02
2023-07-10T20:41:23.658Z,54.32
2023-07-10T20:43:52.500Z,54.26
2023-07-10T20:46:22.702Z,54.68
2023-07-10T20:48:51.252Z,54.08
2023-07-10T20:51:23.613Z,53.73
2023-07-10T20:53:51.824Z,54.19
2023-07-10T20:56:25.375Z,53.78
2023-07-10T20:58:55.111Z,53.89
2023-07-10T21:01:26.865Z,54.23
2023-07-10T21:03:54.776Z,53.67
2023-07-10T21:06:25.451Z,54.11
2023-07-10T21:08:54.912Z,53.80
2023-07-10T21:11:24.663Z,53.50
2023-07-10T21:13:55.896Z,54.51
2023-07-10T21:16:26.218Z,53.76
2023-07-10T21:18:54.462Z,54.64
2023-07-10T21:21:22.378Z,54.81
2023-07-10T21:23:50.809Z,54.14
2023-07-10T21:26:20.410Z,54.49
2023-07-10T21:28:49.497Z,55.44
2023-07-10T21:31:20.798Z,57.49
2023-07-10T21:33:51.264Z,57.75
2023-07-10T21:36:20.372Z,57.35
2023-07-10T21:38:48.226Z,55.93
2023-07-10T21:41:18.676Z,54.06
2023-07-10T21:43:48.335Z,52.79
2023-07-10T21:46:24.304Z,52.60
2023-07-10T21:48:52.417Z,52.85
2023-07-10T21:51:20.274Z,52.87
2023-07-10T21:53:48.129Z,52.99
2023-07-10T21:56:18.617Z,51.71
2023-07-10T21:58:47.944Z,52.17
2023-07-10T22:01:18.603Z,52.47
2023-07-10T22:03:46.944Z,52.83
2023-07-10T22:06:16.114Z,52.56
2023-07-10T22:08:44.102Z,52.45
2023-07-10T22:11:14.952Z,52.49
2023-07-10T22:13:43.274Z,52.10
2023-07-10T22:16:16.622Z,52.40
2023-07-10T22:18:46.963Z,52.34
2023-07-10T22:21:15.261Z,52.89
2023-07-10T22:23:42.767Z,52.87
2023-07-10T22:26:11.455Z,52.47
2023-07-10T22:28:39.651Z,52.63
2023-07-10T22:31:11.635Z,52.62
2023-07-10T22:33:40.177Z,52.18
2023-07-10T22:36:09.496Z,52.14
2023-07-10T22:38:37.087Z,52.25
2023-07-10T22:41:07.920Z,52.69
2023-07-10T22:43:41.491Z,52.55
2023-07-10T22:46:14.545Z,53.26
2023-07-10T22:48:42.333Z,53.03
2023-07-10T22:51:14.429Z,53.61
2023-07-10T22:53:42.189Z,53.27
2023-07-10T22:56:11.912Z,53.45
2023-07-10T22:58:39.477Z,54.49
2023-07-10T23:01:07.070Z,54.42
2023-07-10T23:03:35.031Z,53.39
2023-07-10T23:06:04.211Z,54.85
2023-07-10T23:08:34.675Z,53.42
2023-07-10T23:11:04.385Z,53.46
2023-07-10T23:13:32.282Z,55.59
2023-07-10T23:16:00.163Z,54.90
2023-07-10T23:18:27.773Z,55.63
2023-07-10T23:20:55.280Z,55.90
2023-07-10T23:23:22.784Z,55.22
2023-07-10T23:25:51.660Z,56.04
2023-07-10T23:28:19.208Z,56.30
2023-07-10T23:30:46.836Z,56.81
2023-07-10T23:33:15.335Z,56.36
2023-07-10T23:35:43.348Z,58.50
2023-07-10T23:38:12.152Z,57.14
2023-07-10T23:40:39.806Z,56.77
2023-07-10T23:43:08.638Z,56.20
2023-07-10T23:45:36.168Z,58.09
2023-07-10T23:48:03.804Z,57.34
2023-07-10T23:50:31.380Z,56.72
2023-07-10T23:52:58.898Z,56.60
2023-07-10T23:55:26.412Z,56.71
2023-07-10T23:57:53.916Z,58.45
